sensor_id;sensor_type;location;lat;lon;timestamp;pressure;altitude;pressure_sealevel;temperature;humidity
74433;BME280;62865;53.146;23.172;2022-08-11T16:58:34;1030.2;;;26;40.7
74433;BME280;62865;53.146;23.172;2022-08-11T17:03:44;1030.2;;;25.9;41
74433;BME280;62865;53.146;23.172;2022-08-11T17:09:21;1030.2;;;25.8;41.4
74433;BME280;62865;53.146;23.172;2022-08-11T17:13:58;1030.2;;;25.6;42.1
74433;BME280;62865;53.146;23.172;2022-08-11T17:19:08;1030.2;;;25.6;42
74433;BME280;62865;53.146;23.172;2022-08-11T17:24:19;1030.3;;;25.6;42.4
74433;BME280;62865;53.146;23.172;2022-08-11T17:29:09;1030.3;;;25.6;42.5
74433;BME280;62865;53.146;23.172;2022-08-11T17:34:07;1030.3;;;25.6;42.6
74433;BME280;62865;53.146;23.172;2022-08-11T17:38:51;1030.4;;;25.4;43
74433;BME280;62865;53.146;23.172;2022-08-11T17:43:53;1030.4;;;25.2;43.6
74433;BME280;62865;53.146;23.172;2022-08-11T17:49:17;1030.4;;;25;44.1
74433;BME280;62865;53.146;23.172;2022-08-11T17:54:07;1030.5;;;24.8;44.7
74433;BME280;62865;53.146;23.172;2022-08-11T17:59:01;1030.6;;;24.7;45.4
74433;BME280;62865;53.146;23.172;2022-08-11T18:03:53;1030.6;;;24.4;46.3
74433;BME280;62865;53.146;23.172;2022-08-11T18:08:42;1030.7;;;24.3;46.7
74433;BME280;62865;53.146;23.172;2022-08-11T18:14:05;1030.7;;;24.2;47.1
74433;BME280;62865;53.146;23.172;2022-08-11T18:19:01;1030.7;;;24.1;47.4
74433;BME280;62865;53.146;23.172;2022-08-11T18:24:19;1030.8;;;23.9;48
74433;BME280;62865;53.146;23.172;2022-08-11T18:29:21;1030.8;;;23.7;48.4
74433;BME280;62865;53.146;23.172;2022-08-11T18:34:09;1030.8;;;23.5;49.1
74433;BME280;62865;53.146;23.172;2022-08-11T18:39:19;1030.9;;;23.4;49.7
74433;BME280;62865;53.146;23.172;2022-08-11T18:44:22;1030.9;;;23.2;50.1
74433;BME280;62865;53.146;23.172;2022-08-11T18:49:17;1030.9;;;23.1;50.6
74433;BME280;62865;53.146;23.172;2022-08-11T18:53:55;1031;;;22.9;51.1
74433;BME280;62865;53.146;23.172;2022-08-11T18:58:53;1030.9;;;22.8;51.4
74433;BME280;62865;53.146;23.172;2022-08-11T19:04:21;1030.9;;;22.7;51.7
74433;BME280;62865;53.146;23.172;2022-08-11T19:09:12;1031;;;22.7;52
74433;BME280;62865;53.146;23.172;2022-08-11T19:14:11;1031;;;22.5;52.6
74433;BME280;62865;53.146;23.172;2022-08-11T19:19:09;1031.1;;;22.4;53
74433;BME280;62865;53.146;23.172;2022-08-11T19:24:11;1031.1;;;22.3;53.5
74433;BME280;62865;53.146;23.172;2022-08-11T19:29:01;1031.1;;;22.1;53.9
74433;BME280;62865;53.146;23.172;2022-08-11T19:34:09;1031.1;;;22;54.1
74433;BME280;62865;53.146;23.172;2022-08-11T19:39:21;1031.1;;;21.9;54.4
74433;BME280;62865;53.146;23.172;2022-08-11T19:43:41;1031.2;;;21.9;54.4
74433;BME280;62865;53.146;23.172;2022-08-11T19:48:57;1031.1;;;21.7;54.9
74433;BME280;62865;53.146;23.172;2022-08-11T19:54:19;1031.1;;;21.7;55.1
74433;BME280;62865;53.146;23.172;2022-08-11T19:59:11;1031.1;;;21.6;55.2
74433;BME280;62865;53.146;23.172;2022-08-11T20:04:21;1031.1;;;21.6;55.5
74433;BME280;62865;53.146;23.172;2022-08-11T20:09:03;1031;;;21.5;55.8
74433;BME280;62865;53.146;23.172;2022-08-11T20:14:13;1031;;;21.4;55.9
74433;BME280;62865;53.146;23.172;2022-08-11T20:19:09;1031;;;21.4;56.2
74433;BME280;62865;53.146;23.172;2022-08-11T20:24:01;1031;;;21.2;56.6
74433;BME280;62865;53.146;23.172;2022-08-11T20:29:01;1031;;;21.1;57
74433;BME280;62865;53.146;23.172;2022-08-11T20:33:55;1031.1;;;21.1;57.3
74433;BME280;62865;53.146;23.172;2022-08-11T20:39:05;1031.1;;;21;57.6
74433;BME280;62865;53.146;23.172;2022-08-11T20:43:54;1031.1;;;21;57.7
74433;BME280;62865;53.146;23.172;2022-08-11T20:48:59;1031.1;;;20.9;58.1
74433;BME280;62865;53.146;23.172;2022-08-11T20:54:17;1031.1;;;20.8;58.6
74433;BME280;62865;53.146;23.172;2022-08-11T20:59:18;1031.1;;;20.7;58.8
74433;BME280;62865;53.146;23.172;2022-08-11T21:04:03;1031.1;;;20.7;58.9
74433;BME280;62865;53.146;23.172;2022-08-11T21:08:41;1031.1;;;20.5;59.3
74433;BME280;62865;53.146;23.172;2022-08-11T21:14:11;1031.2;;;20.6;59.3
74433;BME280;62865;53.146;23.172;2022-08-11T21:19:27;1031.2;;;20.5;59.3
74433;BME280;62865;53.146;23.172;2022-08-11T21:23:53;1031.2;;;20.5;59.3
74433;BME280;62865;53.146;23.172;2022-08-11T21:28:41;1031.2;;;20.5;59.5
74433;BME280;62865;53.146;23.172;2022-08-11T21:33:51;1031.2;;;20.5;59.5
74433;BME280;62865;53.146;23.172;2022-08-11T21:44:05;1031.2;;;20.5;59.5
74433;BME280;62865;53.146;23.172;2022-08-11T21:49:09;1031.2;;;20.3;60.2
74433;BME280;62865;53.146;23.172;2022-08-11T21:54:09;1031.2;;;20;61.2
74433;BME280;62865;53.146;23.172;2022-08-11T21:59:09;1031.2;;;20.1;61
74433;BME280;62865;53.146;23.172;2022-08-11T22:04:11;1031.3;;;20.1;60.8
74433;BME280;62865;53.146;23.172;2022-08-11T22:18:41;1031.3;;;20.1;60.8
74433;BME280;62865;53.146;23.172;2022-08-11T22:23:42;1031.4;;;20;61.5
74433;BME280;62865;53.146;23.172;2022-08-11T22:29:17;1031.4;;;19.9;61.6
74433;BME280;62865;53.146;23.172;2022-08-11T22:34:19;1031.4;;;20;61.6
74433;BME280;62865;53.146;23.172;2022-08-11T22:39:03;1031.4;;;20;61.6
74433;BME280;62865;53.146;23.172;2022-08-11T22:49:09;1031.3;;;19.8;62.1
74433;BME280;62865;53.146;23.172;2022-08-11T22:53:53;1031.3;;;19.7;62.2
74433;BME280;62865;53.146;23.172;2022-08-11T22:58:59;1031.3;;;19.7;62.4
74433;BME280;62865;53.146;23.172;2022-08-11T23:03:41;1031.3;;;19.5;62.9
74433;BME280;62865;53.146;23.172;2022-08-11T23:08:53;1031.3;;;19.5;62.9
74433;BME280;62865;53.146;23.172;2022-08-11T23:13:53;1031.2;;;19.7;62.4
74433;BME280;62865;53.146;23.172;2022-08-11T23:19:02;1031.2;;;19.7;62.2
74433;BME280;62865;53.146;23.172;2022-08-11T23:24:17;1031.2;;;19.5;62.6
74433;BME280;62865;53.146;23.172;2022-08-11T23:29:07;1031.3;;;19.4;63.4
74433;BME280;62865;53.146;23.172;2022-08-11T23:34:01;1031.3;;;19.4;63.4
74433;BME280;62865;53.146;23.172;2022-08-11T23:39:01;1031.3;;;19.4;63.3
74433;BME280;62865;53.146;23.172;2022-08-11T23:44:07;1031.3;;;19.5;63.1
74433;BME280;62865;53.146;23.172;2022-08-11T23:49:15;1031.3;;;19.6;62.9
74433;BME280;62865;53.146;23.172;2022-08-11T23:53:41;1031.2;;;19.6;63
74433;BME280;62865;53.146;23.172;2022-08-11T23:58:53;1031.2;;;19.6;62.9
